Oletha, Texas
Current Conditions -  °F | °C
As of 3:35 AM on Sunday 23 Nov 2014 (Local Time) from KLXY Reporting Station
Haze Haze  
Wind Chill: 59°   Ceiling: 300
Heat Index: 59°   Visibility: 1.7mi
Dew Point: 58°   Wind: 3mph
Humidity: 98%   Direction: 270°W
Pressure: 29.64"   Gusts: NA
Location:  31.4027°N, 96.4988°W
Report Text: KLXY 230935Z AUTO 27003KT 1 3/4SM BR OVC003 15/15 A2964 RMK AO2 T01480145
Loading
Personal Weather Stations






























Interactive Weather Map New forecast layout! Learn more

10-Day Weather Forecast

Advertisements
Track Severe Weather on mobile